sensor_id;sensor_type;location;lat;lon;timestamp;P1;durP1;ratioP1;P2;durP2;ratioP2
43319;SDS011;28914;48.722;9.332;2023-04-24T00:04:11;2.53;;;0.80;;
43319;SDS011;28914;48.722;9.332;2023-04-24T00:09:33;1.17;;;0.70;;
43319;SDS011;28914;48.722;9.332;2023-04-24T00:14:52;1.60;;;0.90;;
43319;SDS011;28914;48.722;9.332;2023-04-24T00:20:12;1.00;;;0.60;;
43319;SDS011;28914;48.722;9.332;2023-04-24T00:25:33;1.77;;;0.80;;
43319;SDS011;28914;48.722;9.332;2023-04-24T00:30:52;1.00;;;0.60;;
43319;SDS011;28914;48.722;9.332;2023-04-24T00:36:12;1.10;;;0.70;;
43319;SDS011;28914;48.722;9.332;2023-04-24T00:41:31;1.20;;;0.60;;
43319;SDS011;28914;48.722;9.332;2023-04-24T00:46:50;3.30;;;0.70;;
43319;SDS011;28914;48.722;9.332;2023-04-24T00:52:13;1.00;;;0.70;;
43319;SDS011;28914;48.722;9.332;2023-04-24T00:57:36;1.73;;;0.83;;
43319;SDS011;28914;48.722;9.332;2023-04-24T01:02:57;2.57;;;0.90;;
43319;SDS011;28914;48.722;9.332;2023-04-24T01:08:17;1.23;;;0.60;;
43319;SDS011;28914;48.722;9.332;2023-04-24T01:13:38;1.57;;;1.00;;
43319;SDS011;28914;48.722;9.332;2023-04-24T01:18:58;1.93;;;0.80;;
43319;SDS011;28914;48.722;9.332;2023-04-24T01:24:17;1.77;;;0.70;;
43319;SDS011;28914;48.722;9.332;2023-04-24T01:29:38;0.90;;;0.60;;
43319;SDS011;28914;48.722;9.332;2023-04-24T01:34:57;1.50;;;0.80;;
43319;SDS011;28914;48.722;9.332;2023-04-24T01:40:17;0.97;;;0.60;;
43319;SDS011;28914;48.722;9.332;2023-04-24T01:45:36;1.43;;;0.70;;
43319;SDS011;28914;48.722;9.332;2023-04-24T01:50:56;1.00;;;0.70;;
43319;SDS011;28914;48.722;9.332;2023-04-24T01:56:15;0.90;;;0.60;;
43319;SDS011;28914;48.722;9.332;2023-04-24T02:01:35;1.43;;;0.67;;
43319;SDS011;28914;48.722;9.332;2023-04-24T02:06:54;1.53;;;0.80;;
43319;SDS011;28914;48.722;9.332;2023-04-24T02:12:14;1.10;;;0.70;;
43319;SDS011;28914;48.722;9.332;2023-04-24T02:17:34;1.33;;;0.60;;
43319;SDS011;28914;48.722;9.332;2023-04-24T02:22:54;1.10;;;0.90;;
43319;SDS011;28914;48.722;9.332;2023-04-24T02:28:14;1.93;;;0.80;;
43319;SDS011;28914;48.722;9.332;2023-04-24T02:33:33;1.53;;;0.60;;
43319;SDS011;28914;48.722;9.332;2023-04-24T02:38:52;2.00;;;0.70;;
43319;SDS011;28914;48.722;9.332;2023-04-24T02:44:12;2.23;;;0.60;;
43319;SDS011;28914;48.722;9.332;2023-04-24T02:49:31;2.67;;;0.90;;
43319;SDS011;28914;48.722;9.332;2023-04-24T02:54:50;1.30;;;0.73;;
43319;SDS011;28914;48.722;9.332;2023-04-24T03:00:10;3.47;;;0.80;;
43319;SDS011;28914;48.722;9.332;2023-04-24T03:05:30;1.50;;;0.67;;
43319;SDS011;28914;48.722;9.332;2023-04-24T03:10:49;1.87;;;0.70;;
43319;SDS011;28914;48.722;9.332;2023-04-24T03:16:09;1.30;;;0.73;;
43319;SDS011;28914;48.722;9.332;2023-04-24T03:21:28;3.00;;;0.80;;
43319;SDS011;28914;48.722;9.332;2023-04-24T03:26:47;1.33;;;0.80;;
43319;SDS011;28914;48.722;9.332;2023-04-24T03:32:07;1.37;;;0.90;;
43319;SDS011;28914;48.722;9.332;2023-04-24T03:37:26;2.20;;;0.83;;
43319;SDS011;28914;48.722;9.332;2023-04-24T03:42:45;2.03;;;0.70;;
43319;SDS011;28914;48.722;9.332;2023-04-24T03:48:04;1.03;;;0.67;;
43319;SDS011;28914;48.722;9.332;2023-04-24T03:53:23;1.13;;;0.60;;
43319;SDS011;28914;48.722;9.332;2023-04-24T03:58:42;1.00;;;0.67;;
43319;SDS011;28914;48.722;9.332;2023-04-24T04:04:02;1.67;;;0.70;;
43319;SDS011;28914;48.722;9.332;2023-04-24T04:09:21;0.90;;;0.60;;
43319;SDS011;28914;48.722;9.332;2023-04-24T04:14:41;1.47;;;0.70;;
43319;SDS011;28914;48.722;9.332;2023-04-24T04:20:00;1.00;;;0.60;;
43319;SDS011;28914;48.722;9.332;2023-04-24T04:25:19;2.80;;;0.60;;
43319;SDS011;28914;48.722;9.332;2023-04-24T04:30:39;1.00;;;0.60;;
43319;SDS011;28914;48.722;9.332;2023-04-24T04:35:58;1.00;;;0.60;;
43319;SDS011;28914;48.722;9.332;2023-04-24T04:41:18;1.63;;;0.80;;
43319;SDS011;28914;48.722;9.332;2023-04-24T04:46:38;1.10;;;0.80;;
43319;SDS011;28914;48.722;9.332;2023-04-24T04:51:58;1.73;;;1.07;;
43319;SDS011;28914;48.722;9.332;2023-04-24T04:57:17;1.20;;;0.83;;
43319;SDS011;28914;48.722;9.332;2023-04-24T05:02:36;2.43;;;2.20;;
43319;SDS011;28914;48.722;9.332;2023-04-24T05:07:56;3.83;;;3.43;;
43319;SDS011;28914;48.722;9.332;2023-04-24T05:13:15;2.60;;;2.17;;
43319;SDS011;28914;48.722;9.332;2023-04-24T05:18:34;1.50;;;1.40;;
43319;SDS011;28914;48.722;9.332;2023-04-24T05:23:53;1.60;;;0.90;;
43319;SDS011;28914;48.722;9.332;2023-04-24T05:29:13;2.03;;;1.37;;
43319;SDS011;28914;48.722;9.332;2023-04-24T05:34:32;1.60;;;1.20;;
43319;SDS011;28914;48.722;9.332;2023-04-24T05:39:51;2.13;;;0.90;;
43319;SDS011;28914;48.722;9.332;2023-04-24T05:45:10;1.53;;;0.90;;
43319;SDS011;28914;48.722;9.332;2023-04-24T05:50:34;1.10;;;0.80;;
43319;SDS011;28914;48.722;9.332;2023-04-24T05:55:53;1.27;;;1.03;;
43319;SDS011;28914;48.722;9.332;2023-04-24T06:01:13;3.30;;;0.80;;
43319;SDS011;28914;48.722;9.332;2023-04-24T06:06:35;3.00;;;1.33;;
43319;SDS011;28914;48.722;9.332;2023-04-24T06:11:55;2.40;;;1.20;;
43319;SDS011;28914;48.722;9.332;2023-04-24T06:17:15;2.20;;;1.30;;
43319;SDS011;28914;48.722;9.332;2023-04-24T06:22:34;1.60;;;1.23;;
43319;SDS011;28914;48.722;9.332;2023-04-24T06:27:54;3.40;;;1.43;;
43319;SDS011;28914;48.722;9.332;2023-04-24T06:33:14;1.73;;;1.33;;
43319;SDS011;28914;48.722;9.332;2023-04-24T06:38:34;3.73;;;1.60;;
43319;SDS011;28914;48.722;9.332;2023-04-24T06:43:53;2.07;;;1.73;;
43319;SDS011;28914;48.722;9.332;2023-04-24T06:49:12;1.47;;;1.10;;
43319;SDS011;28914;48.722;9.332;2023-04-24T06:54:34;1.67;;;1.20;;
43319;SDS011;28914;48.722;9.332;2023-04-24T06:59:53;1.70;;;1.10;;
43319;SDS011;28914;48.722;9.332;2023-04-24T07:05:13;1.93;;;1.30;;
43319;SDS011;28914;48.722;9.332;2023-04-24T07:10:33;2.07;;;1.10;;
43319;SDS011;28914;48.722;9.332;2023-04-24T07:15:54;1.37;;;1.10;;
43319;SDS011;28914;48.722;9.332;2023-04-24T07:21:14;1.40;;;1.20;;
43319;SDS011;28914;48.722;9.332;2023-04-24T07:26:33;2.60;;;1.17;;
43319;SDS011;28914;48.722;9.332;2023-04-24T07:31:52;2.40;;;1.20;;
43319;SDS011;28914;48.722;9.332;2023-04-24T07:37:12;1.20;;;1.00;;
43319;SDS011;28914;48.722;9.332;2023-04-24T07:42:31;2.30;;;1.17;;
43319;SDS011;28914;48.722;9.332;2023-04-24T07:47:52;2.67;;;0.90;;
43319;SDS011;28914;48.722;9.332;2023-04-24T07:53:12;1.40;;;0.90;;
43319;SDS011;28914;48.722;9.332;2023-04-24T07:58:31;1.47;;;1.00;;
43319;SDS011;28914;48.722;9.332;2023-04-24T08:03:50;1.10;;;0.80;;
43319;SDS011;28914;48.722;9.332;2023-04-24T08:09:10;1.47;;;1.00;;
43319;SDS011;28914;48.722;9.332;2023-04-24T08:14:29;1.20;;;0.80;;
43319;SDS011;28914;48.722;9.332;2023-04-24T08:19:48;1.90;;;1.00;;
43319;SDS011;28914;48.722;9.332;2023-04-24T08:36:49;1.23;;;0.80;;
43319;SDS011;28914;48.722;9.332;2023-04-24T08:42:09;1.40;;;0.97;;
43319;SDS011;28914;48.722;9.332;2023-04-24T08:47:31;1.50;;;0.90;;
43319;SDS011;28914;48.722;9.332;2023-04-24T08:52:52;1.10;;;0.83;;
43319;SDS011;28914;48.722;9.332;2023-04-24T08:58:12;1.27;;;0.80;;
43319;SDS011;28914;48.722;9.332;2023-04-24T09:03:31;1.97;;;1.10;;
43319;SDS011;28914;48.722;9.332;2023-04-24T09:08:52;1.50;;;0.90;;
43319;SDS011;28914;48.722;9.332;2023-04-24T09:14:12;1.40;;;0.93;;
43319;SDS011;28914;48.722;9.332;2023-04-24T09:19:32;2.00;;;0.80;;
43319;SDS011;28914;48.722;9.332;2023-04-24T09:25:04;1.00;;;0.70;;
43319;SDS011;28914;48.722;9.332;2023-04-24T09:30:25;1.30;;;1.10;;
43319;SDS011;28914;48.722;9.332;2023-04-24T09:35:49;3.63;;;0.80;;
43319;SDS011;28914;48.722;9.332;2023-04-24T09:41:12;1.40;;;1.00;;
43319;SDS011;28914;48.722;9.332;2023-04-24T09:46:32;1.33;;;0.80;;
43319;SDS011;28914;48.722;9.332;2023-04-24T09:51:51;1.60;;;1.07;;
43319;SDS011;28914;48.722;9.332;2023-04-24T09:57:11;0.93;;;0.70;;
43319;SDS011;28914;48.722;9.332;2023-04-24T10:02:30;1.00;;;0.70;;
43319;SDS011;28914;48.722;9.332;2023-04-24T10:07:51;1.47;;;0.70;;
43319;SDS011;28914;48.722;9.332;2023-04-24T10:13:11;1.00;;;0.70;;
43319;SDS011;28914;48.722;9.332;2023-04-24T10:18:31;1.57;;;0.70;;
43319;SDS011;28914;48.722;9.332;2023-04-24T10:23:52;2.10;;;1.10;;
43319;SDS011;28914;48.722;9.332;2023-04-24T10:29:12;1.00;;;0.70;;
43319;SDS011;28914;48.722;9.332;2023-04-24T10:34:33;1.37;;;0.80;;
43319;SDS011;28914;48.722;9.332;2023-04-24T10:39:54;0.90;;;0.70;;
43319;SDS011;28914;48.722;9.332;2023-04-24T10:45:18;1.77;;;0.80;;
43319;SDS011;28914;48.722;9.332;2023-04-24T10:50:46;2.13;;;0.83;;
43319;SDS011;28914;48.722;9.332;2023-04-24T10:56:09;1.00;;;0.60;;
43319;SDS011;28914;48.722;9.332;2023-04-24T11:01:31;1.40;;;0.80;;
43319;SDS011;28914;48.722;9.332;2023-04-24T11:06:51;0.97;;;0.70;;
43319;SDS011;28914;48.722;9.332;2023-04-24T11:12:11;1.00;;;0.60;;
43319;SDS011;28914;48.722;9.332;2023-04-24T11:17:33;1.73;;;0.80;;
43319;SDS011;28914;48.722;9.332;2023-04-24T11:22:57;1.20;;;0.70;;
43319;SDS011;28914;48.722;9.332;2023-04-24T11:28:22;1.77;;;0.90;;
43319;SDS011;28914;48.722;9.332;2023-04-24T11:33:43;0.90;;;0.50;;
43319;SDS011;28914;48.722;9.332;2023-04-24T11:39:02;1.20;;;0.70;;
43319;SDS011;28914;48.722;9.332;2023-04-24T11:44:22;1.67;;;0.70;;
43319;SDS011;28914;48.722;9.332;2023-04-24T11:49:42;1.83;;;0.80;;
43319;SDS011;28914;48.722;9.332;2023-04-24T11:55:01;1.10;;;0.90;;
43319;SDS011;28914;48.722;9.332;2023-04-24T12:00:23;3.83;;;1.43;;
43319;SDS011;28914;48.722;9.332;2023-04-24T12:05:49;1.37;;;0.90;;
43319;SDS011;28914;48.722;9.332;2023-04-24T12:11:09;1.10;;;0.90;;
43319;SDS011;28914;48.722;9.332;2023-04-24T12:16:28;1.80;;;0.80;;
43319;SDS011;28914;48.722;9.332;2023-04-24T12:22:02;1.10;;;0.70;;
43319;SDS011;28914;48.722;9.332;2023-04-24T12:27:23;1.00;;;0.80;;
43319;SDS011;28914;48.722;9.332;2023-04-24T12:32:43;1.47;;;0.80;;
43319;SDS011;28914;48.722;9.332;2023-04-24T12:38:11;1.10;;;0.80;;
43319;SDS011;28914;48.722;9.332;2023-04-24T12:43:32;1.27;;;0.97;;
43319;SDS011;28914;48.722;9.332;2023-04-24T12:48:51;2.13;;;1.00;;
43319;SDS011;28914;48.722;9.332;2023-04-24T12:54:10;1.43;;;0.90;;
43319;SDS011;28914;48.722;9.332;2023-04-24T12:59:30;1.53;;;1.00;;
43319;SDS011;28914;48.722;9.332;2023-04-24T13:04:49;1.30;;;1.00;;
43319;SDS011;28914;48.722;9.332;2023-04-24T13:10:09;2.30;;;1.20;;
43319;SDS011;28914;48.722;9.332;2023-04-24T13:15:29;1.20;;;1.10;;
43319;SDS011;28914;48.722;9.332;2023-04-24T13:20:48;1.20;;;0.90;;
43319;SDS011;28914;48.722;9.332;2023-04-24T13:26:07;2.40;;;0.87;;
43319;SDS011;28914;48.722;9.332;2023-04-24T13:31:27;1.20;;;0.90;;
43319;SDS011;28914;48.722;9.332;2023-04-24T13:36:47;1.07;;;0.97;;
43319;SDS011;28914;48.722;9.332;2023-04-24T13:42:08;1.00;;;0.60;;
43319;SDS011;28914;48.722;9.332;2023-04-24T13:47:27;1.57;;;0.90;;
43319;SDS011;28914;48.722;9.332;2023-04-24T13:52:46;1.50;;;0.97;;
43319;SDS011;28914;48.722;9.332;2023-04-24T13:58:05;1.40;;;1.00;;
43319;SDS011;28914;48.722;9.332;2023-04-24T14:03:25;1.40;;;1.00;;
43319;SDS011;28914;48.722;9.332;2023-04-24T14:08:44;1.30;;;1.00;;
43319;SDS011;28914;48.722;9.332;2023-04-24T14:14:03;2.03;;;1.30;;
43319;SDS011;28914;48.722;9.332;2023-04-24T14:19:23;1.10;;;0.93;;
43319;SDS011;28914;48.722;9.332;2023-04-24T14:24:43;1.37;;;0.80;;
43319;SDS011;28914;48.722;9.332;2023-04-24T14:30:02;1.50;;;0.77;;
43319;SDS011;28914;48.722;9.332;2023-04-24T14:35:23;1.20;;;1.00;;
43319;SDS011;28914;48.722;9.332;2023-04-24T14:40:42;2.53;;;1.57;;
43319;SDS011;28914;48.722;9.332;2023-04-24T14:46:01;1.10;;;0.90;;
43319;SDS011;28914;48.722;9.332;2023-04-24T14:51:21;1.27;;;1.00;;
43319;SDS011;28914;48.722;9.332;2023-04-24T14:56:40;1.40;;;1.00;;
43319;SDS011;28914;48.722;9.332;2023-04-24T15:01:59;1.20;;;0.90;;
43319;SDS011;28914;48.722;9.332;2023-04-24T15:07:18;1.20;;;0.90;;
43319;SDS011;28914;48.722;9.332;2023-04-24T15:12:38;1.57;;;0.93;;
43319;SDS011;28914;48.722;9.332;2023-04-24T15:17:57;1.63;;;1.33;;
43319;SDS011;28914;48.722;9.332;2023-04-24T15:23:16;1.10;;;0.90;;
43319;SDS011;28914;48.722;9.332;2023-04-24T15:28:35;1.70;;;1.40;;
43319;SDS011;28914;48.722;9.332;2023-04-24T15:33:55;1.93;;;1.50;;
43319;SDS011;28914;48.722;9.332;2023-04-24T15:39:14;1.67;;;1.27;;
43319;SDS011;28914;48.722;9.332;2023-04-24T15:44:33;1.73;;;1.17;;
43319;SDS011;28914;48.722;9.332;2023-04-24T15:49:52;1.23;;;0.93;;
43319;SDS011;28914;48.722;9.332;2023-04-24T15:55:12;2.13;;;1.20;;
43319;SDS011;28914;48.722;9.332;2023-04-24T16:00:31;1.33;;;1.00;;
43319;SDS011;28914;48.722;9.332;2023-04-24T16:05:52;1.10;;;0.90;;
43319;SDS011;28914;48.722;9.332;2023-04-24T16:11:12;1.30;;;0.97;;
43319;SDS011;28914;48.722;9.332;2023-04-24T16:16:31;1.30;;;0.80;;
43319;SDS011;28914;48.722;9.332;2023-04-24T16:21:50;1.10;;;0.80;;
43319;SDS011;28914;48.722;9.332;2023-04-24T16:27:11;1.00;;;0.70;;
43319;SDS011;28914;48.722;9.332;2023-04-24T16:32:31;1.60;;;1.17;;
43319;SDS011;28914;48.722;9.332;2023-04-24T16:37:50;1.30;;;0.87;;
43319;SDS011;28914;48.722;9.332;2023-04-24T16:43:09;3.73;;;0.90;;
43319;SDS011;28914;48.722;9.332;2023-04-24T16:48:29;1.60;;;1.10;;
43319;SDS011;28914;48.722;9.332;2023-04-24T16:53:49;1.50;;;1.20;;
43319;SDS011;28914;48.722;9.332;2023-04-24T16:59:08;2.07;;;1.30;;
43319;SDS011;28914;48.722;9.332;2023-04-24T17:04:28;1.40;;;1.30;;
43319;SDS011;28914;48.722;9.332;2023-04-24T17:09:48;1.40;;;1.30;;
43319;SDS011;28914;48.722;9.332;2023-04-24T17:15:07;1.73;;;0.90;;
43319;SDS011;28914;48.722;9.332;2023-04-24T17:20:26;1.53;;;1.20;;
43319;SDS011;28914;48.722;9.332;2023-04-24T17:25:46;1.40;;;1.20;;
43319;SDS011;28914;48.722;9.332;2023-04-24T17:31:06;1.50;;;1.10;;
43319;SDS011;28914;48.722;9.332;2023-04-24T17:36:26;2.27;;;1.20;;
43319;SDS011;28914;48.722;9.332;2023-04-24T17:41:45;1.20;;;1.07;;
43319;SDS011;28914;48.722;9.332;2023-04-24T17:47:04;1.80;;;1.03;;
43319;SDS011;28914;48.722;9.332;2023-04-24T17:52:23;1.20;;;0.90;;
43319;SDS011;28914;48.722;9.332;2023-04-24T17:57:43;1.30;;;0.87;;
43319;SDS011;28914;48.722;9.332;2023-04-24T18:03:02;1.43;;;0.70;;
43319;SDS011;28914;48.722;9.332;2023-04-24T18:08:21;1.30;;;1.20;;
43319;SDS011;28914;48.722;9.332;2023-04-24T18:13:40;1.10;;;0.87;;
43319;SDS011;28914;48.722;9.332;2023-04-24T18:19:00;2.50;;;1.17;;
43319;SDS011;28914;48.722;9.332;2023-04-24T18:24:19;2.00;;;1.40;;
43319;SDS011;28914;48.722;9.332;2023-04-24T18:29:40;1.90;;;1.40;;
43319;SDS011;28914;48.722;9.332;2023-04-24T18:34:59;1.50;;;1.30;;
43319;SDS011;28914;48.722;9.332;2023-04-24T18:40:18;6.50;;;6.00;;
43319;SDS011;28914;48.722;9.332;2023-04-24T18:45:38;4.40;;;2.93;;
43319;SDS011;28914;48.722;9.332;2023-04-24T18:50:57;2.30;;;2.00;;
43319;SDS011;28914;48.722;9.332;2023-04-24T18:56:17;3.43;;;3.13;;
43319;SDS011;28914;48.722;9.332;2023-04-24T19:01:37;4.20;;;3.70;;
43319;SDS011;28914;48.722;9.332;2023-04-24T19:06:57;2.70;;;2.40;;
43319;SDS011;28914;48.722;9.332;2023-04-24T19:12:16;4.40;;;1.87;;
43319;SDS011;28914;48.722;9.332;2023-04-24T19:17:36;2.90;;;1.77;;
43319;SDS011;28914;48.722;9.332;2023-04-24T19:22:55;3.27;;;1.77;;
43319;SDS011;28914;48.722;9.332;2023-04-24T19:28:14;2.30;;;2.07;;
43319;SDS011;28914;48.722;9.332;2023-04-24T19:33:33;2.10;;;1.57;;
43319;SDS011;28914;48.722;9.332;2023-04-24T19:38:53;2.10;;;1.87;;
43319;SDS011;28914;48.722;9.332;2023-04-24T19:44:13;3.93;;;2.90;;
43319;SDS011;28914;48.722;9.332;2023-04-24T19:49:33;3.77;;;2.40;;
43319;SDS011;28914;48.722;9.332;2023-04-24T19:54:52;3.83;;;1.70;;
43319;SDS011;28914;48.722;9.332;2023-04-24T20:00:12;2.07;;;1.60;;
43319;SDS011;28914;48.722;9.332;2023-04-24T20:05:31;1.33;;;1.10;;
43319;SDS011;28914;48.722;9.332;2023-04-24T20:10:51;2.63;;;1.73;;
43319;SDS011;28914;48.722;9.332;2023-04-24T20:16:11;1.63;;;1.17;;
43319;SDS011;28914;48.722;9.332;2023-04-24T20:21:31;2.93;;;1.70;;
43319;SDS011;28914;48.722;9.332;2023-04-24T20:26:50;2.00;;;1.20;;
43319;SDS011;28914;48.722;9.332;2023-04-24T20:32:09;1.67;;;1.40;;
43319;SDS011;28914;48.722;9.332;2023-04-24T20:37:28;2.70;;;1.63;;
43319;SDS011;28914;48.722;9.332;2023-04-24T20:42:47;1.77;;;1.67;;
43319;SDS011;28914;48.722;9.332;2023-04-24T20:48:07;2.73;;;1.60;;
43319;SDS011;28914;48.722;9.332;2023-04-24T20:53:27;1.37;;;1.27;;
43319;SDS011;28914;48.722;9.332;2023-04-24T20:58:47;2.70;;;1.67;;
43319;SDS011;28914;48.722;9.332;2023-04-24T21:04:05;3.93;;;2.10;;
43319;SDS011;28914;48.722;9.332;2023-04-24T21:09:25;5.77;;;3.17;;
43319;SDS011;28914;48.722;9.332;2023-04-24T21:14:44;4.17;;;2.70;;
43319;SDS011;28914;48.722;9.332;2023-04-24T21:20:03;3.27;;;2.93;;
43319;SDS011;28914;48.722;9.332;2023-04-24T21:25:23;2.23;;;1.93;;
43319;SDS011;28914;48.722;9.332;2023-04-24T21:30:43;3.87;;;2.33;;
43319;SDS011;28914;48.722;9.332;2023-04-24T21:36:02;1.80;;;1.30;;
43319;SDS011;28914;48.722;9.332;2023-04-24T21:41:22;2.13;;;1.70;;
43319;SDS011;28914;48.722;9.332;2023-04-24T21:46:42;2.80;;;1.50;;
43319;SDS011;28914;48.722;9.332;2023-04-24T21:52:01;3.23;;;2.30;;
43319;SDS011;28914;48.722;9.332;2023-04-24T21:57:20;2.63;;;2.00;;
43319;SDS011;28914;48.722;9.332;2023-04-24T22:02:39;1.80;;;1.70;;
43319;SDS011;28914;48.722;9.332;2023-04-24T22:08:00;2.00;;;1.80;;
43319;SDS011;28914;48.722;9.332;2023-04-24T22:13:19;2.20;;;1.70;;
43319;SDS011;28914;48.722;9.332;2023-04-24T22:18:38;2.93;;;1.80;;
43319;SDS011;28914;48.722;9.332;2023-04-24T22:23:58;1.70;;;1.47;;
43319;SDS011;28914;48.722;9.332;2023-04-24T22:29:17;7.00;;;2.10;;
43319;SDS011;28914;48.722;9.332;2023-04-24T22:34:36;1.80;;;1.57;;
43319;SDS011;28914;48.722;9.332;2023-04-24T22:39:55;2.57;;;1.97;;
43319;SDS011;28914;48.722;9.332;2023-04-24T22:45:17;1.90;;;1.63;;
43319;SDS011;28914;48.722;9.332;2023-04-24T22:50:37;2.10;;;1.90;;
43319;SDS011;28914;48.722;9.332;2023-04-24T22:55:56;1.60;;;1.50;;
43319;SDS011;28914;48.722;9.332;2023-04-24T23:01:15;2.50;;;1.40;;
43319;SDS011;28914;48.722;9.332;2023-04-24T23:06:35;2.07;;;1.87;;
43319;SDS011;28914;48.722;9.332;2023-04-24T23:11:54;1.90;;;1.70;;
43319;SDS011;28914;48.722;9.332;2023-04-24T23:17:15;1.80;;;1.30;;
43319;SDS011;28914;48.722;9.332;2023-04-24T23:22:34;2.10;;;1.80;;
43319;SDS011;28914;48.722;9.332;2023-04-24T23:27:54;3.40;;;1.60;;
43319;SDS011;28914;48.722;9.332;2023-04-24T23:33:14;2.27;;;1.53;;
43319;SDS011;28914;48.722;9.332;2023-04-24T23:38:33;2.60;;;1.50;;
43319;SDS011;28914;48.722;9.332;2023-04-24T23:43:52;1.57;;;1.30;;
43319;SDS011;28914;48.722;9.332;2023-04-24T23:49:11;1.60;;;1.50;;
43319;SDS011;28914;48.722;9.332;2023-04-24T23:54:30;2.23;;;1.10;;
43319;SDS011;28914;48.722;9.332;2023-04-24T23:59:50;1.93;;;1.73;;
